TPC weather

Tarapoa Airport
Tarapoa, Sucumbios Province, Ecuador

Public forecast

Using degrees Celsius for public forecast. Weather courtesy of forecast.io.

Closest aviation weather report (METAR) to Tarapoa Airport

Closest report is Nueva Loja Airport, 34.3 nm (63.6 km) WNW. Retrieved 2019/10/19 20:00 UTC (45 minutes ago):

SENL 192000Z 20004KT 9999 SCT020 SCT100 28/23 Q1010 RMK A2985

Closest aviation forecast (TAF) to Tarapoa Airport

Forecast is more than 12 hours old.

Closest forecast is Nueva Loja Airport, 34.3 nm (63.6 km) WNW. Retrieved 2018/09/09 12:03 UTC (1 year ago):

TAF TAF SCDA 091040Z 0912/1012 19004KT 9999 OVC020 TX18/0917Z TN16/1006ZLVA0571 091200 GG EBBRYZYX EBBRYZYZ EGGYYBYA KMKMYTYX KWBCYMYX MPLBYFYX MPTOYMYX 091200 SEQUYZYX SAEQ01 SEQU 091200 RRB METAR SENL 091200Z 36002KT 9999 SCT030 BKN100 22/21 Q1013 RMK A2994